Tiempo atmosférico en la estación meteorológica de Carballiño, O, Ourense (400 m.)



Fecha
DESCASC
Temp. máxima en grados centígrados (hora)
DESCASC
Temp. mínima en grados centígrados (hora)
DESCASC
Temp. media en grados centígrados
DESCASC
Racha de viento máxima en m/sg (hora)
DESCASC
Velocidad máxima media en intervalos de 10 minutos(hora)
DESCASC
Precipitaciones diarias en mm
DESCASC
Precipitaciones de 00:00 a 06:00 en mm
DESCASC
Precipitaciones de 06:00 a 12:00 en mm
DESCASC
Precipitaciones de 12:00 a 18:00 en mm
DESCASC
Precipitaciones de 18:00 a 24:00 en mm
DESCASC
24-09-2020 17.9 (15:50) 11.8 (09:00) 14.8 10.28 (17:00) 4.17 (17:00) 1.2 0 0 0.9 0.3
23-09-2020 19.1 (15:30) 14.2 (00:00) 16.7 6.39 (16:50) 2.22 (18:40) 14.9 12.9 0.1 1.8 0.1
22-09-2020 24.2 (16:30) 12.8 (00:00) 18.5 5 (21:40) 1.11 (17:10) 2.8 0 0 0 2.8
21-09-2020 23.5 (16:20) 12.1 (00:00) 17.8 5 (17:40) 1.67 (17:50) 0.3 0.1 0.2 0 0
20-09-2020 20.9 (15:40) 14.3 (00:00) 17.6 4.72 (15:50) 1.67 (15:50) 28.4 2.7 18.3 7.4 0
19-09-2020 24.5 (18:30) 14.3 (00:00) 19.4 3.89 (15:50) 1.67 (15:50) 11.2 1.1 8 0 2.1
18-09-2020 25.3 (16:40) 15 (00:00) 20.1 6.67 (21:40) 1.94 (21:40) 6.9 1.3 0 0.9 4.7
17-09-2020 29.2 (14:40) 14 (00:00) 21.6 8.89 (14:20) 3.06 (17:50) 6 0 0 0 6
16-09-2020 29.4 (15:20) 11 (08:30) 20.2 8.33 (15:30) 1.67 (21:40) 0 0 0 0 0
15-09-2020 27.7 (17:00) 11.3 (00:00) 19.5 5.83 (17:40) 1.94 (17:40) 0 0 0 0 0
14-09-2020 25.8 (17:40) 16.1 (00:00) 20.9 6.94 (18:00) 2.5 (18:00) 0.1 0.1 0 0 0
13-09-2020 35.4 (15:40) 13.5 (00:00) 24.5 5.28 (17:50) 1.94 (17:50) 0 0 0 0 0
12-09-2020 36.6 (18:20) 12.3 (08:40) 24.4 3.89 (16:30) 1.11 (16:20) 0 0 0 0 0
11-09-2020 35.3 (16:40) 11.7 (00:00) 23.5 5.56 (18:10) 2.5 (18:30) 0 0 0 0 0
10-09-2020 34.2 (17:40) 10.9 (00:00) 22.6 5.28 (18:40) 1.67 (18:50) 0 0 0 0 0
09-09-2020 33.8 (18:00) 10.1 (00:00) 21.9 4.17 (19:50) 1.11 (19:50) 0 0 0 0 0
08-09-2020 31.7 (17:30) 9.9 (00:00) 20.8 5 (12:40) 1.67 (11:20) 0 0 0 0 0
07-09-2020 29.8 (18:10) 8.4 (08:30) 19.1 5.83 (15:50) 2.5 (19:40) 0 0 0 0 0
06-09-2020 30.2 (16:40) 11.3 (00:00) 20.8 6.11 (18:50) 2.5 (17:20) 0 0 0 0 0
05-09-2020 30.7 (16:20) 12.1 (00:00) 21.4 6.11 (17:20) 2.78 (17:00) 0 0 0 0 0
04-09-2020 34 (15:50) 13.1 (00:00) 23.6 6.67 (17:00) 2.5 (16:30) 0 0 0 0 0
03-09-2020 34.9 (18:10) 11.7 (00:00) 23.3 4.44 (16:50) 0.83 (19:10) 0 0 0 0 0
02-09-2020 31.9 (19:00) 8.8 (00:00) 20.3 6.39 (20:50) 1.67 (21:00) 0 0 0 0 0
01-09-2020 27.9 (17:00) 12.2 (00:00) 20 6.94 (20:20) 2.22 (18:40) 0 0 0 0 0
31-08-2020 27.1 (15:40) 6.3 (00:00) 16.7 5.56 (15:20) 2.5 (15:30) 0 0 0 0 0
30-08-2020 24.6 (18:00) 7.4 (00:00) 16 6.67 (18:10) 2.5 (15:20) 0 0 0 0 0
29-08-2020 22 (14:20) 11 (00:00) 16.5 10 (15:20) 3.61 (13:00) 0.6 0.3 0.2 0.1 0
28-08-2020 22.4 (16:30) 12.7 (00:00) 17.5 7.22 (16:20) 2.78 (16:10) 0 0 0 0 0

Gráficas

Temp. máximas Temp. mínimas Temp. medias Precipitaciones Rachas de viento máximas Velocidades máximas media en intervalos de 10 minutos

Datos horarios

Fecha y hora oficial Temperatura (ºC) Velocidad del viento (km/h) Dirección del viento Racha (km/h) Dirección de racha Precipitación (mm) Presión (hPa) Tendencia (hPa) Humedad (%)
2020-09-26 23:00:00 15 2 Nordeste 12 Nordeste 0.1 -- -- 95
2020-09-26 22:00:00 15.2 0 Calma 5 Sudoeste 0 -- -- 93
2020-09-26 21:00:00 15.5 0 Calma 19 Noroeste 0 -- -- 91
2020-09-26 20:00:00 15.9 4 Oeste 15 Noroeste 0 -- -- 89
2020-09-26 19:00:00 15.8 2 Oeste 12 Oeste 0 -- -- 90
2020-09-26 18:00:00 15.2 0 Calma 12 Sudoeste 0 -- -- 94
2020-09-26 17:00:00 14.8 0 Calma 11 Sudeste 0.1 -- -- 95
2020-09-26 16:00:00 14.5 0 Calma 8 Sudeste 0.5 -- -- 94
2020-09-26 15:00:00 14 0 Calma 8 Sudoeste 0.2 -- -- 91
2020-09-26 14:00:00 13.2 0 Calma 6 Sudeste 0 -- -- 92
2020-09-26 13:00:00 12.8 0 Calma 6 Sudoeste 0.1 -- -- 91
2020-09-26 12:00:00 12.4 0 Calma 5 Sudoeste 0 -- -- 89
2020-09-26 11:00:00 11.5 0 Calma 3 Sudoeste 0 -- -- 93
2020-09-26 10:00:00 10.8 0 Calma -- -- 0 -- -- 97
2020-09-26 09:00:00 10.4 0 Calma -- -- 0 -- -- 97
2020-09-26 08:00:00 10.2 0 Calma -- -- 0 -- -- 97
2020-09-26 07:00:00 9.9 0 Calma -- -- 0 -- -- 96
2020-09-26 06:00:00 9.9 0 Calma -- -- 0 -- -- 96
2020-09-26 05:00:00 9.9 0 Calma -- -- 0 -- -- 94
2020-09-26 04:00:00 10.3 0 Calma -- -- 0 -- -- 94
2020-09-26 03:00:00 10.6 0 Calma 0 Calma 0 -- -- 94
2020-09-26 02:00:00 10.5 0 Calma 2 Noroeste 0 -- -- 92
2020-09-26 01:00:00 10.7 0 Calma -- -- 0 -- -- 89
2020-09-26 00:00:00 11.6 0 Calma 14 Oeste 0 -- -- 86
2020-09-25 23:00:00 12.7 3 Noroeste 9 Oeste 0 -- -- 81
2020-09-25 22:00:00 13.2 0 Calma 13 Nordeste 0 -- -- 75
2020-09-25 21:00:00 13.7 4 Norte 16 Nordeste 0 -- -- 68
2020-09-25 20:00:00 15 0 Calma 22 Nordeste 0 -- -- 64
2020-09-25 19:00:00 16.8 5 Norte 27 Norte 0 -- -- 54
2020-09-25 18:00:00 17.8 10 Noroeste 22 Oeste 0 -- -- 51
2020-09-25 17:00:00 17.2 9 Noroeste 30 Norte 0 -- -- 53
2020-09-25 16:00:00 16.8 8 Noroeste 26 Noroeste 0 -- -- 53
2020-09-25 15:00:00 16.7 8 Noroeste 25 Norte 0 -- -- 54
2020-09-25 14:00:00 15.6 6 Norte 25 Oeste 0 -- -- 60
2020-09-25 13:00:00 16.2 6 Noroeste 36 Noroeste 0 -- -- 59
2020-09-25 12:00:00 13.8 7 Noroeste 22 Oeste 0 -- -- 71
2020-09-25 11:00:00 12 6 Noroeste 20 Oeste 0 -- -- 89
2020-09-25 10:00:00 10 2 Noroeste 8 Oeste 0 -- -- 98
2020-09-25 09:00:00 8.8 0 Calma 6 Sudoeste 0 -- -- 96
2020-09-25 08:00:00 8.9 0 Calma 6 Oeste 0 -- -- 96
2020-09-25 07:00:00 9.7 0 Calma 14 Norte 0.5 -- -- 95
2020-09-25 06:00:00 9.4 0 Calma 6 Sudoeste 0 -- -- 95
2020-09-25 05:00:00 9.9 0 Calma 5 Oeste 0 -- -- 94
2020-09-25 04:00:00 9.9 3 Oeste 6 Oeste 0 -- -- 92
2020-09-25 03:00:00 10.3 0 Calma 4 Sudoeste 0 -- -- 90
2020-09-25 02:00:00 11.3 2 Oeste 12 Norte 0 -- -- 85
2020-09-25 01:00:00 11.8 4 Oeste 10 Oeste 0 -- -- 85
2020-09-25 00:00:00 12 4 Noroeste 18 Noroeste 0 -- -- 84
2020-09-24 23:00:00 12.6 6 Oeste 17 Noroeste 0 -- -- 85
2020-09-24 22:00:00 12.8 9 Noroeste 23 Oeste 0 -- -- 84
2020-09-24 21:00:00 13 6 Oeste 20 Noroeste 0 -- -- 87
2020-09-24 20:00:00 14.4 3 Noroeste 25 Oeste 0.2 -- -- 86
2020-09-24 19:00:00 14.7 4 Oeste 17 Sudoeste 0.1 -- -- 78
2020-09-24 18:00:00 16.1 7 Oeste 28 Noroeste 0 -- -- 67
2020-09-24 17:00:00 16 15 Oeste 37 Oeste 0.1 -- -- 70
2020-09-24 16:00:00 16.2 9 Oeste 33 Sudoeste 0 -- -- 64
2020-09-24 15:00:00 15.3 6 Oeste 32 Oeste 0.2 -- -- 82
2020-09-24 14:00:00 14.8 4 Oeste 22 Oeste 0.6 -- -- 87
2020-09-24 13:00:00 15.1 8 Oeste 27 Oeste 0 -- -- 71
2020-09-24 12:00:00 15.4 5 Oeste 18 Oeste 0 -- -- 72
2020-09-24 11:00:00 14.4 0 Calma 7 Sudoeste 0 -- -- 89
2020-09-24 10:00:00 12.3 0 Calma -- -- 0 -- -- 96
2020-09-24 09:00:00 11.9 0 Calma 4 Oeste 0 -- -- 95
2020-09-24 08:00:00 12.5 0 Calma 5 Oeste 0 -- -- 95
2020-09-24 07:00:00 13.1 0 Calma -- -- 0 -- -- 95
2020-09-24 06:00:00 13.4 0 Calma -- -- 0 -- -- 94
2020-09-24 05:00:00 13.8 0 Calma 5 Sur 0 -- -- 94
2020-09-24 04:00:00 14.1 0 Calma -- -- 0 -- -- 93
2020-09-24 03:00:00 14.2 0 Calma 3 Sur 0 -- -- 93
2020-09-24 02:00:00 14.2 0 Calma 4 Este 0 -- -- 93
2020-09-24 01:00:00 14.1 0 Calma 4 Sudoeste 0 -- -- 93
2020-09-24 00:00:00 14.3 0 Calma 2 Noroeste 0 -- -- 93
2020-09-23 23:00:00 14.4 0 Calma 3 Este 0 -- -- 90
2020-09-23 22:00:00 14.8 0 Calma 11 Sudoeste 0 -- -- 84
2020-09-23 21:00:00 15.5 0 Calma 16 Noroeste 0 -- -- 81
2020-09-23 20:00:00 16.6 4 Oeste 15 Noroeste 0.1 -- -- 75
2020-09-23 19:00:00 17.6 4 Oeste 19 Noroeste 0 -- -- 74
2020-09-23 18:00:00 18.2 5 Oeste 19 Oeste 0 -- -- 74
2020-09-23 17:00:00 18.7 7 Oeste 23 Oeste 0 -- -- 73
2020-09-23 16:00:00 18.8 2 Oeste 13 Oeste 0 -- -- 82
2020-09-23 15:00:00 17.7 0 Calma 12 Oeste 0 -- -- 90
2020-09-23 14:00:00 18.4 0 Calma 12 Oeste 0.2 -- -- 93
2020-09-23 13:00:00 17 4 Oeste 19 Noroeste 1.6 -- -- 91
2020-09-23 12:00:00 18.3 0 Calma 6 Sudeste 0 -- -- 92
2020-09-23 11:00:00 16.7 0 Calma 0 Calma 0 -- -- 97
2020-09-23 10:00:00 16.2 0 Calma 2 Nordeste 0 -- -- 97
2020-09-23 09:00:00 15.7 0 Calma -- -- 0 -- -- 97
2020-09-23 08:00:00 15.8 0 Calma -- -- 0.1 -- -- 97
2020-09-23 07:00:00 15.9 0 Calma -- -- 0 -- -- 97
2020-09-23 06:00:00 15.9 0 Calma 2 Este 0 -- -- 98
2020-09-23 05:00:00 15.9 0 Calma 4 Sudeste 0 -- -- 97
2020-09-23 04:00:00 16.1 0 Calma 7 Sudeste 0.5 -- -- 97
2020-09-23 03:00:00 16.3 0 Calma 6 Noroeste 11.1 -- -- 96
2020-09-23 02:00:00 16.4 0 Calma 14 Sudeste 0.8 -- -- 94
2020-09-23 01:00:00 16.6 0 Calma 8 Sudeste 0.5 -- -- 94
2020-09-23 00:00:00 16.6 0 Calma 13 Sur 0.4 -- -- 93
2020-09-22 23:00:00 17 0 Calma 9 Sudoeste 0 -- -- 93
2020-09-22 22:00:00 17.7 0 Calma 18 Sur 2.4 -- -- 90
2020-09-22 21:00:00 18.9 0 Calma 6 Sudeste 0 -- -- 78
2020-09-22 20:00:00 19.5 0 Calma 6 Sur 0 -- -- 73
2020-09-22 19:00:00 20.5 0 Calma 11 Sudoeste 0 -- -- 67
2020-09-22 18:00:00 20.2 0 Calma 13 Oeste 0 -- -- 63
2020-09-22 17:00:00 22.2 3 Oeste 9 Sur 0 -- -- 54
2020-09-22 16:00:00 22.9 0 Calma 13 Oeste 0 -- -- 51
2020-09-22 15:00:00 21.6 3 Sudeste 12 Sur 0 -- -- 53
2020-09-22 14:00:00 21.2 3 Oeste 11 Sur 0 -- -- 59
2020-09-22 13:00:00 20.3 0 Calma 10 Sudeste 0 -- -- 68
2020-09-22 12:00:00 16 0 Calma 10 Sudeste 0 -- -- 92
2020-09-22 11:00:00 14.1 0 Calma 0 Calma 0 -- -- 97
2020-09-22 10:00:00 13.6 0 Calma 0 Calma 0 -- -- 97
2020-09-22 09:00:00 13.1 0 Calma 0 Calma 0 -- -- 97
2020-09-22 08:00:00 12.9 0 Calma -- -- 0 -- -- 96
2020-09-22 07:00:00 13.2 0 Calma -- -- 0 -- -- 97
2020-09-22 06:00:00 12.9 0 Calma -- -- 0 -- -- 96
2020-09-22 05:00:00 12.8 0 Calma -- -- 0 -- -- 95
2020-09-22 04:00:00 13 0 Calma -- -- 0 -- -- 95
2020-09-22 03:00:00 13.3 0 Calma -- -- 0 -- -- 95
2020-09-22 02:00:00 13.2 0 Calma -- -- 0 -- -- 94
2020-09-22 01:00:00 13.1 0 Calma -- -- 0 -- -- 92
2020-09-22 00:00:00 13.9 0 Calma 4 Oeste 0 -- -- 91
2020-09-21 23:00:00 14.7 0 Calma 4 Oeste 0 -- -- 88
2020-09-21 22:00:00 15.8 0 Calma 7 Oeste 0 -- -- 83
2020-09-21 21:00:00 17.6 0 Calma 11 Oeste 0 -- -- 74
2020-09-21 20:00:00 20 3 Noroeste 14 Oeste 0 -- -- 64
2020-09-21 19:00:00 21 3 Noroeste 11 Noroeste 0 -- -- 66
2020-09-21 18:00:00 21.4 6 Noroeste 18 Noroeste 0 -- -- 57
2020-09-21 17:00:00 23.5 3 Oeste 12 Sudoeste 0 -- -- 53
2020-09-21 16:00:00 23.2 3 Oeste 10 Oeste 0 -- -- 51
2020-09-21 15:00:00 21.6 0 Calma 10 Este 0 -- -- 57
2020-09-21 14:00:00 19.6 0 Calma 9 Oeste 0 -- -- 75
2020-09-21 13:00:00 16.7 0 Calma 6 Sur 0 -- -- 92
2020-09-21 12:00:00 14.1 0 Calma 3 Sudeste 0 -- -- 98
2020-09-21 11:00:00 13.5 0 Calma -- -- 0.1 -- -- 99
2020-09-21 10:00:00 12.4 2 Oeste 7 Noroeste 0 -- -- 98
2020-09-21 09:00:00 12.4 0 Calma -- -- 0 -- -- 98
2020-09-21 08:00:00 12.6 0 Calma -- -- 0 -- -- 98
2020-09-21 07:00:00 12.9 0 Calma -- -- 0.1 -- -- 98
2020-09-21 06:00:00 13.1 0 Calma -- -- 0 -- -- 98
2020-09-21 05:00:00 13.2 0 Calma -- -- 0.1 -- -- 97
2020-09-21 04:00:00 12.6 0 Calma -- -- 0 -- -- 97
2020-09-21 03:00:00 12.4 0 Calma -- -- 0 -- -- 95
2020-09-21 02:00:00 13.1 0 Calma -- -- 0 -- -- 94
2020-09-21 01:00:00 13.5 0 Calma -- -- 0 -- -- 94
2020-09-21 00:00:00 14.3 0 Calma -- -- 0 -- -- 93
2020-09-20 23:00:00 15.3 0 Calma 5 Oeste 0 -- -- 92
2020-09-20 22:00:00 15.8 0 Calma 4 Oeste 0 -- -- 90
2020-09-20 21:00:00 16.7 0 Calma 10 Noroeste 0 -- -- 86
2020-09-20 20:00:00 18.6 3 Oeste 13 Noroeste 0 -- -- 82
2020-09-20 19:00:00 18.3 3 Oeste 15 Oeste 0 -- -- 84
2020-09-20 18:00:00 18.6 2 Oeste 13 Oeste 0 -- -- 86
2020-09-20 17:00:00 19.1 2 Oeste 11 Noroeste 0 -- -- 89
2020-09-20 16:00:00 19.7 0 Calma 17 Oeste 1.2 -- -- 85
2020-09-20 15:00:00 19.1 0 Calma 8 Oeste 6 -- -- 91
2020-09-20 14:00:00 19.3 0 Calma 7 Sudoeste 0.2 -- -- 89
2020-09-20 13:00:00 18.9 0 Calma 5 Sudeste 0 -- -- 91
2020-09-20 12:00:00 17.4 0 Calma 2 Oeste 0.1 -- -- 97
2020-09-20 11:00:00 16.5 0 Calma 7 Oeste 0.6 -- -- 98
2020-09-20 10:00:00 16.3 0 Calma 4 Noroeste 0.6 -- -- 98
2020-09-20 09:00:00 15.8 0 Calma -- -- 1.7 -- -- 97
2020-09-20 08:00:00 15.8 0 Calma -- -- 12.2 -- -- 97
2020-09-20 07:00:00 15.9 0 Calma 4 Nordeste 3.1 -- -- 97
2020-09-20 06:00:00 15.8 0 Calma 8 Nordeste 1.2 -- -- 96
2020-09-20 05:00:00 16 0 Calma 6 Nordeste 1.5 -- -- 96
2020-09-20 04:00:00 16 2 Nordeste 6 Este 0 -- -- 95
2020-09-20 03:00:00 16.1 0 Calma 5 Nordeste 0 -- -- 94
2020-09-20 02:00:00 15.9 0 Calma 6 Nordeste 0 -- -- 94
2020-09-20 01:00:00 16.3 3 Nordeste 9 Nordeste 0 -- -- 94
2020-09-20 00:00:00 16.8 3 Nordeste 7 Nordeste 0.1 -- -- 93
2020-09-19 23:00:00 17.7 0 Calma 8 Nordeste 1.9 -- -- 89
2020-09-19 22:00:00 19 0 Calma 8 Nordeste 0.1 -- -- 83
2020-09-19 21:00:00 19.3 2 Oeste 10 Oeste 0 -- -- 77
2020-09-19 20:00:00 22.2 0 Calma 3 Oeste 0 -- -- 63
2020-09-19 19:00:00 23.8 0 Calma 9 Oeste 0 -- -- 55
2020-09-19 18:00:00 23.9 5 Oeste 11 Oeste 0 -- -- 54
2020-09-19 17:00:00 22.6 3 Noroeste 10 Oeste 0 -- -- 62
2020-09-19 16:00:00 19.3 6 Noroeste 14 Noroeste 0 -- -- 76
2020-09-19 15:00:00 20.7 0 Calma 9 Sudeste 0 -- -- 78
2020-09-19 14:00:00 19.5 0 Calma 8 Oeste 0 -- -- 83
2020-09-19 13:00:00 17.6 0 Calma 3 Sudoeste 0 -- -- 95
2020-09-19 12:00:00 16.5 0 Calma 3 Oeste 0.1 -- -- 98
2020-09-19 11:00:00 16 0 Calma -- -- 0.8 -- -- 98
2020-09-19 10:00:00 15.3 0 Calma -- -- 0.7 -- -- 98
2020-09-19 09:00:00 14.9 0 Calma -- -- 1.1 -- -- 98
2020-09-19 08:00:00 14.9 0 Calma 2 Noroeste 1.8 -- -- 98
2020-09-19 07:00:00 14.8 0 Calma 4 Oeste 3.5 -- -- 98
2020-09-19 06:00:00 14.6 0 Calma -- -- 0.9 -- -- 97
2020-09-19 05:00:00 14.6 0 Calma -- -- 0.1 -- -- 97
2020-09-19 04:00:00 14.3 0 Calma 0 Calma 0 -- -- 96
2020-09-19 03:00:00 14.6 0 Calma 5 Nordeste 0 -- -- 95
2020-09-19 02:00:00 15 0 Calma 8 Este 0 -- -- 95
2020-09-19 01:00:00 15.5 2 Nordeste 9 Nordeste 0.1 -- -- 95
2020-09-19 00:00:00 15.8 0 Calma 10 Nordeste 0 -- -- 95
2020-09-18 23:00:00 16 0 Calma 11 Nordeste 0.2 -- -- 93
2020-09-18 22:00:00 16.7 2 Nordeste 24 Este 3.3 -- -- 90
2020-09-18 21:00:00 19 2 Oeste 21 Sur 1.2 -- -- 80
2020-09-18 20:00:00 22.4 0 Calma 4 Oeste 0 -- -- 65
2020-09-18 19:00:00 23.9 0 Calma 10 Oeste 0 -- -- 53
2020-09-18 18:00:00 24.7 4 Oeste 10 Oeste 0 -- -- 50
2020-09-18 17:00:00 24.4 0 Calma 13 Este 0 -- -- 49
2020-09-18 16:00:00 24.1 2 Este 12 Nordeste 0 -- -- 57
2020-09-18 15:00:00 21.4 0 Calma 13 Este 0.9 -- -- 66
2020-09-18 14:00:00 22.2 0 Calma 15 Sudeste 0 -- -- 59
2020-09-18 13:00:00 21.1 2 Sudeste 12 Este 0 -- -- 66
2020-09-18 12:00:00 19.2 3 Este 10 Este 0 -- -- 75
2020-09-18 11:00:00 17.8 0 Calma 8 Sudeste 0 -- -- 86
2020-09-18 10:00:00 16.4 0 Calma 5 Este 0 -- -- 98
2020-09-18 09:00:00 15.3 0 Calma -- -- 0 -- -- 97
2020-09-18 08:00:00 15.1 0 Calma -- -- 0 -- -- 98
2020-09-18 07:00:00 15.3 0 Calma -- -- 0 -- -- 97
2020-09-18 06:00:00 15.6 0 Calma -- -- 0.1 -- -- 97
2020-09-18 05:00:00 15.9 0 Calma 7 Oeste 0.9 -- -- 97
2020-09-18 04:00:00 16.1 0 Calma -- -- 0 -- -- 97
2020-09-18 03:00:00 16.2 0 Calma 9 Sudoeste 0.1 -- -- 97
2020-09-18 02:00:00 16.3 0 Calma 7 Sudoeste 0.2 -- -- 97
2020-09-18 01:00:00 16.5 0 Calma 6 Oeste 0 -- -- 96
2020-09-18 00:00:00 16.8 0 Calma 5 Norte 0 -- -- 96
2020-09-17 23:00:00 16.8 3 Nordeste 8 Nordeste 0.4 -- -- 96
2020-09-17 22:00:00 17.3 0 Calma 14 Nordeste 0.4 -- -- 96
2020-09-17 21:00:00 17.7 2 Nordeste 11 Nordeste 0.4 -- -- 93
2020-09-17 20:00:00 18.3 0 Calma 14 Sudoeste 4.8 -- -- 90
2020-09-17 19:00:00 21.6 3 Noroeste 24 Noroeste 0 -- -- 64
2020-09-17 18:00:00 23.1 10 Oeste 26 Oeste 0 -- -- 58
2020-09-17 17:00:00 26.9 0 Calma 23 Este 0 -- -- 44
2020-09-17 16:00:00 27.5 4 Sudeste 23 Sudeste 0 -- -- 43
2020-09-17 15:00:00 28.8 6 Sudeste 32 Este 0 -- -- 41
2020-09-17 14:00:00 28.3 5 Sudeste 23 Sudeste 0 -- -- 43
2020-09-17 13:00:00 25.7 0 Calma 7 Sudeste 0 -- -- 54
2020-09-17 12:00:00 22.2 0 Calma 10 Este 0 -- -- 67
2020-09-17 11:00:00 18.5 0 Calma 6 Nordeste 0 -- -- 87
2020-09-17 10:00:00 16.3 0 Calma 6 Nordeste 0 -- -- 94
2020-09-17 09:00:00 15 0 Calma -- -- 0 -- -- 95
2020-09-17 08:00:00 14.8 0 Calma -- -- 0 -- -- 95
2020-09-17 07:00:00 14.6 0 Calma 3 Nordeste 0 -- -- 95
2020-09-17 06:00:00 14.1 0 Calma 3 Sudoeste 0 -- -- 94
2020-09-17 05:00:00 14.3 0 Calma 3 Nordeste 0 -- -- 93
2020-09-17 04:00:00 14.8 0 Calma 5 Nordeste 0 -- -- 93
2020-09-17 03:00:00 15.4 0 Calma 5 Nordeste 0 -- -- 89
2020-09-17 02:00:00 16.5 0 Calma -- -- 0 -- -- 87
2020-09-17 01:00:00 17 0 Calma -- -- 0 -- -- 83
2020-09-17 00:00:00 18.2 0 Calma 4 Oeste 0 -- -- 78
2020-09-16 23:00:00 19.6 0 Calma 2 Noroeste 0 -- -- 71
2020-09-16 22:00:00 21.9 0 Calma 12 Nordeste 0 -- -- 62
2020-09-16 21:00:00 23.2 5 Nordeste 10 Nordeste 0 -- -- 58
2020-09-16 20:00:00 27.5 0 Calma 8 Sudeste 0 -- -- 43
2020-09-16 19:00:00 28.6 3 Este 15 Sudeste 0 -- -- 38
2020-09-16 18:00:00 28.4 0 Calma 13 Este 0 -- -- 39
2020-09-16 17:00:00 28.8 0 Calma 10 Sur 0 -- -- 40
2020-09-16 16:00:00 29 0 Calma 30 Este 0 -- -- 39
2020-09-16 15:00:00 28.5 3 Sudeste 16 Este 0 -- -- 40
2020-09-16 14:00:00 27.3 4 Sudeste 19 Este 0 -- -- 45
2020-09-16 13:00:00 24.7 5 Sudeste 14 Sudeste 0 -- -- 54
2020-09-16 12:00:00 19.7 0 Calma 3 Este 0 -- -- 82
2020-09-16 11:00:00 16 0 Calma -- -- 0 -- -- 99
2020-09-16 10:00:00 12.6 0 Calma -- -- 0 -- -- 99
2020-09-16 09:00:00 11.1 0 Calma 0 Calma 0 -- -- 98
2020-09-16 08:00:00 11.1 0 Calma 3 Nordeste 0 -- -- 97
2020-09-16 07:00:00 11.4 0 Calma -- -- 0 -- -- 96
2020-09-16 06:00:00 12.1 0 Calma 2 Nordeste 0 -- -- 96
2020-09-16 05:00:00 12.8 0 Calma 7 Norte 0 -- -- 95
2020-09-16 04:00:00 13.3 0 Calma 7 Nordeste 0 -- -- 94
2020-09-16 03:00:00 13.8 0 Calma 0 Calma 0 -- -- 93
2020-09-16 02:00:00 14.5 0 Calma 6 Nordeste 0 -- -- 92
2020-09-16 01:00:00 15.4 0 Calma 9 Nordeste 0 -- -- 89
2020-09-16 00:00:00 16.3 0 Calma 10 Nordeste 0 -- -- 86
2020-09-15 23:00:00 17.8 0 Calma 5 Nordeste 0 -- -- 82
2020-09-15 22:00:00 19.7 0 Calma 7 Noroeste 0 -- -- 74
2020-09-15 21:00:00 21.3 0 Calma 15 Noroeste 0 -- -- 67
2020-09-15 20:00:00 23.8 4 Oeste 20 Sudoeste 0 -- -- 57
2020-09-15 19:00:00 25.7 5 Oeste 14 Noroeste 0 -- -- 51
2020-09-15 18:00:00 26.4 3 Oeste 21 Oeste 0 -- -- 50
2020-09-15 17:00:00 27.7 3 Oeste 17 Sudoeste 0 -- -- 45
2020-09-15 16:00:00 26.8 2 Sudoeste 19 Sur 0 -- -- 46
2020-09-15 15:00:00 25.4 4 Noroeste 13 Noroeste 0 -- -- 58
2020-09-15 14:00:00 22.8 0 Calma 8 Sudeste 0 -- -- 63
2020-09-15 13:00:00 22.2 0 Calma 10 Sur 0 -- -- 63
2020-09-15 12:00:00 20.8 0 Calma 8 Sudeste 0 -- -- 70
2020-09-15 11:00:00 17.8 0 Calma 5 Este 0 -- -- 88
2020-09-15 10:00:00 13.5 0 Calma 8 Nordeste 0 -- -- 98
2020-09-15 09:00:00 11.5 0 Calma 5 Nordeste 0 -- -- 97
2020-09-15 08:00:00 11.5 0 Calma 8 Nordeste 0 -- -- 97
2020-09-15 07:00:00 12.1 0 Calma 9 Nordeste 0 -- -- 97
2020-09-15 06:00:00 12.3 3 Nordeste 9 Nordeste 0 -- -- 96
2020-09-15 05:00:00 12.5 0 Calma 6 Nordeste 0 -- -- 95
2020-09-15 04:00:00 13.1 0 Calma 6 Norte 0 -- -- 94
2020-09-15 03:00:00 13.7 0 Calma 6 Nordeste 0 -- -- 93
2020-09-15 02:00:00 14.4 0 Calma 6 Nordeste 0 -- -- 91
2020-09-15 01:00:00 15.4 0 Calma 6 Nordeste 0 -- -- 90
2020-09-15 00:00:00 16.1 0 Calma 0 Calma 0 -- -- 88
2020-09-14 23:00:00 17.6 0 Calma 4 Oeste 0 -- -- 83
2020-09-14 22:00:00 19.7 0 Calma 9 Oeste 0 -- -- 72
2020-09-14 21:00:00 21.6 0 Calma 10 Oeste 0 -- -- 69
2020-09-14 20:00:00 24.3 5 Oeste 13 Noroeste 0 -- -- 60
2020-09-14 19:00:00 25.2 2 Oeste 20 Oeste 0 -- -- 57
2020-09-14 18:00:00 25.4 9 Oeste 25 Noroeste 0 -- -- 60
2020-09-14 17:00:00 24.5 4 Oeste 13 Noroeste 0 -- -- 66
2020-09-14 16:00:00 22.7 0 Calma 14 Oeste 0 -- -- 74
2020-09-14 15:00:00 22 4 Oeste 11 Oeste 0 -- -- 77
2020-09-14 14:00:00 21.8 0 Calma 10 Sudoeste 0 -- -- 76
2020-09-14 13:00:00 21.5 0 Calma 8 Oeste 0 -- -- 77
2020-09-14 12:00:00 21.2 0 Calma 11 Oeste 0 -- -- 77
2020-09-14 11:00:00 19.4 0 Calma -- -- 0 -- -- 88
2020-09-14 10:00:00 17.4 0 Calma 3 Nordeste 0 -- -- 92
2020-09-14 09:00:00 16.7 0 Calma 3 Norte 0 -- -- 92
2020-09-14 08:00:00 16.6 0 Calma 6 Norte 0 -- -- 92
2020-09-14 07:00:00 16.5 0 Calma -- -- 0 -- -- 90
2020-09-14 06:00:00 16.8 0 Calma 14 Nordeste 0.1 -- -- 87
2020-09-14 05:00:00 17.5 0 Calma 8 Nordeste 0 -- -- 83
2020-09-14 04:00:00 18.2 0 Calma 7 Nordeste 0 -- -- 81
2020-09-14 03:00:00 18.8 0 Calma -- -- 0 -- -- 81
2020-09-14 02:00:00 19.8 0 Calma 7 Oeste 0 -- -- 73
2020-09-14 01:00:00 20.2 3 Oeste 6 Oeste 0 -- -- 76
2020-09-14 00:00:00 20.9 0 Calma -- -- 0 -- -- 76
2020-09-13 23:00:00 22.2 0 Calma -- -- 0 -- -- 71
2020-09-13 22:00:00 24.1 0 Calma -- -- 0 -- -- 61
2020-09-13 21:00:00 25.9 0 Calma -- -- 0 -- -- 61
2020-09-13 20:00:00 29 0 Calma 12 Oeste 0 -- -- 48
2020-09-13 19:00:00 31 3 Oeste 17 Noroeste 0 -- -- 39
2020-09-13 18:00:00 31.4 6 Oeste 19 Noroeste 0 -- -- 37
2020-09-13 17:00:00 34.7 0 Calma 11 Sudeste 0 -- -- 32
2020-09-13 16:00:00 35.3 0 Calma 17 Este 0 -- -- 30
2020-09-13 15:00:00 34.5 2 Nordeste 16 Sudeste 0 -- -- 31
2020-09-13 14:00:00 31.7 3 Sudeste 15 Este 0 -- -- 34
2020-09-13 13:00:00 29 0 Calma 6 Sur 0 -- -- 40
2020-09-13 12:00:00 24.7 0 Calma -- -- 0 -- -- 60
2020-09-13 11:00:00 20.3 0 Calma 5 Norte 0 -- -- 78
2020-09-13 10:00:00 15.5 0 Calma 5 Noroeste 0 -- -- 86
2020-09-13 09:00:00 13.8 0 Calma 7 Norte 0 -- -- 90
2020-09-13 08:00:00 13.7 0 Calma 0 Calma 0 -- -- 92
2020-09-13 07:00:00 14.1 0 Calma 0 Calma 0 -- -- 92
2020-09-13 06:00:00 14.8 0 Calma 2 Norte 0 -- -- 92
2020-09-13 05:00:00 15.4 0 Calma 5 Nordeste 0 -- -- 91
2020-09-13 04:00:00 15.7 0 Calma -- -- 0 -- -- 89
2020-09-13 03:00:00 16.6 0 Calma -- -- 0 -- -- 86
2020-09-13 02:00:00 17.5 0 Calma -- -- 0 -- -- 84
2020-09-13 01:00:00 18.7 0 Calma -- -- 0 -- -- 83
2020-09-13 00:00:00 19.6 0 Calma -- -- 0 -- -- 80
2020-09-12 23:00:00 21.2 0 Calma -- -- 0 -- -- 72
2020-09-12 22:00:00 23.3 0 Calma 7 Nordeste 0 -- -- 62
2020-09-12 21:00:00 26.3 0 Calma 8 Nordeste 0 -- -- 52
2020-09-12 20:00:00 30.3 0 Calma 4 Este 0 -- -- 45
2020-09-12 19:00:00 34.5 0 Calma 8 Norte 0 -- -- 31
2020-09-12 18:00:00 36.3 0 Calma 11 Este 0 -- -- 27
2020-09-12 17:00:00 35.7 3 Este 14 Este 0 -- -- 27
2020-09-12 16:00:00 34.7 0 Calma 10 Sudeste 0 -- -- 28
2020-09-12 15:00:00 33.3 0 Calma 11 Este 0 -- -- 32
2020-09-12 14:00:00 31.6 0 Calma 7 Nordeste 0 -- -- 37
2020-09-12 13:00:00 27.7 0 Calma 0 Calma 0 -- -- 50
2020-09-12 12:00:00 22.9 0 Calma 0 Calma 0 -- -- 69
2020-09-12 11:00:00 19 0 Calma -- -- 0 -- -- 89
2020-09-12 10:00:00 14 0 Calma -- -- 0 -- -- 96
2020-09-12 09:00:00 12.7 0 Calma 0 Calma 0 -- -- 95
2020-09-12 08:00:00 12.5 0 Calma -- -- 0 -- -- 94
2020-09-12 07:00:00 12.9 0 Calma -- -- 0 -- -- 93
2020-09-12 06:00:00 13.6 0 Calma 0 Calma 0 -- -- 91
2020-09-12 05:00:00 14.2 0 Calma -- -- 0 -- -- 90
2020-09-12 04:00:00 14.9 0 Calma -- -- 0 -- -- 89
2020-09-12 03:00:00 16.1 0 Calma 3 Nordeste 0 -- -- 86
2020-09-12 02:00:00 17 0 Calma 2 Norte 0 -- -- 83
2020-09-12 01:00:00 18.4 0 Calma 6 Nordeste 0 -- -- 83
2020-09-12 00:00:00 19.5 0 Calma -- -- 0 -- -- 79
2020-09-11 23:00:00 21.4 0 Calma 2 Oeste 0 -- -- 70
2020-09-11 22:00:00 23.5 0 Calma 6 Noroeste 0 -- -- 59
2020-09-11 21:00:00 27 0 Calma 14 Oeste 0 -- -- 48
2020-09-11 20:00:00 30.3 0 Calma 13 Norte 0 -- -- 42
2020-09-11 19:00:00 29.9 3 Noroeste 20 Oeste 0 -- -- 41
2020-09-11 18:00:00 33.9 0 Calma 8 Oeste 0 -- -- 30
2020-09-11 17:00:00 34.8 2 Norte 11 Oeste 0 -- -- 28
2020-09-11 16:00:00 33.5 0 Calma 7 Nordeste 0 -- -- 30
2020-09-11 15:00:00 32.8 0 Calma 10 Sudeste 0 -- -- 32
2020-09-11 14:00:00 30.9 0 Calma 11 Nordeste 0 -- -- 38
2020-09-11 13:00:00 27.6 0 Calma 7 Sudeste 0 -- -- 45
2020-09-11 12:00:00 22.8 0 Calma 6 Este 0 -- -- 64
2020-09-11 11:00:00 18.4 0 Calma 0 Calma 0 -- -- 89
2020-09-11 10:00:00 13.5 0 Calma -- -- 0 -- -- 96
2020-09-11 09:00:00 11.9 0 Calma 0 Calma 0 -- -- 94
2020-09-11 08:00:00 11.9 0 Calma -- -- 0 -- -- 93
2020-09-11 07:00:00 12.3 0 Calma -- -- 0 -- -- 93
2020-09-11 06:00:00 12.8 0 Calma 0 Calma 0 -- -- 91
2020-09-11 05:00:00 13.4 0 Calma -- -- 0 -- -- 89
2020-09-11 04:00:00 14.3 0 Calma -- -- 0 -- -- 86
2020-09-11 03:00:00 15.4 0 Calma 3 Nordeste 0 -- -- 83
2020-09-11 02:00:00 16.3 0 Calma 5 Nordeste 0 -- -- 83
2020-09-11 01:00:00 17.5 0 Calma -- -- 0 -- -- 82
2020-09-11 00:00:00 19 0 Calma -- -- 0 -- -- 77
2020-09-10 23:00:00 21.1 0 Calma -- -- 0 -- -- 69
2020-09-10 22:00:00 23.6 0 Calma 5 Este 0 -- -- 58
2020-09-10 21:00:00 26.4 0 Calma 13 Noroeste 0 -- -- 47
2020-09-10 20:00:00 30 3 Noroeste 15 Norte 0 -- -- 39
2020-09-10 19:00:00 32 4 Norte 19 Nordeste 0 -- -- 36
2020-09-10 18:00:00 33.7 5 Noroeste 17 Este 0 -- -- 32
2020-09-10 17:00:00 33.7 0 Calma 9 Nordeste 0 -- -- 30
2020-09-10 16:00:00 32.7 3 Oeste 12 Oeste 0 -- -- 31
2020-09-10 15:00:00 30.8 2 Este 8 Este 0 -- -- 35
2020-09-10 14:00:00 29 0 Calma 10 Este 0 -- -- 40
2020-09-10 13:00:00 25.9 3 Nordeste 7 Nordeste 0 -- -- 50
2020-09-10 12:00:00 21.6 0 Calma 5 Nordeste 0 -- -- 67
2020-09-10 11:00:00 17.5 0 Calma 0 Calma 0 -- -- 93
2020-09-10 10:00:00 13.1 0 Calma -- -- 0 -- -- 97
2020-09-10 09:00:00 11.4 0 Calma 7 Nordeste 0 -- -- 97
2020-09-10 08:00:00 11 0 Calma -- -- 0 -- -- 94
2020-09-10 07:00:00 11.4 0 Calma -- -- 0 -- -- 93
2020-09-10 06:00:00 12.1 0 Calma -- -- 0 -- -- 92
2020-09-10 05:00:00 12.6 0 Calma -- -- 0 -- -- 90
2020-09-10 04:00:00 13.4 0 Calma -- -- 0 -- -- 89
2020-09-10 03:00:00 14.4 0 Calma 3 Norte 0 -- -- 87
2020-09-10 02:00:00 15.5 0 Calma 4 Norte 0 -- -- 84
2020-09-10 01:00:00 16.5 0 Calma 3 Sudeste 0 -- -- 81
2020-09-10 00:00:00 18.2 0 Calma -- -- 0 -- -- 75
2020-09-09 23:00:00 20.5 0 Calma 2 Sur 0 -- -- 65
2020-09-09 22:00:00 23.1 0 Calma 8 Norte 0 -- -- 54
2020-09-09 21:00:00 26.2 0 Calma 10 Noroeste 0 -- -- 42
2020-09-09 20:00:00 30.6 2 Noroeste 15 Noroeste 0 -- -- 33
2020-09-09 19:00:00 32.7 0 Calma 7 Sur 0 -- -- 26
2020-09-09 18:00:00 33.6 0 Calma 9 Este 0 -- -- 25
2020-09-09 17:00:00 33 0 Calma 8 Nordeste 0 -- -- 25
2020-09-09 16:00:00 32.3 0 Calma 12 Noroeste 0 -- -- 28
2020-09-09 15:00:00 31.2 0 Calma 10 Este 0 -- -- 30
2020-09-09 14:00:00 28.9 3 Este 12 Sudeste 0 -- -- 34
2020-09-09 13:00:00 26.3 0 Calma 7 Sudeste 0 -- -- 44
2020-09-09 12:00:00 21.3 0 Calma 6 Oeste 0 -- -- 63
2020-09-09 11:00:00 17.4 0 Calma 0 Calma 0 -- -- 88
2020-09-09 10:00:00 12.1 0 Calma -- -- 0 -- -- 97
2020-09-09 09:00:00 10.2 0 Calma -- -- 0 -- -- 95
2020-09-09 08:00:00 10.4 0 Calma -- -- 0 -- -- 95
2020-09-09 07:00:00 10.6 0 Calma -- -- 0 -- -- 93
2020-09-09 06:00:00 11.2 0 Calma 3 Nordeste 0 -- -- 93
2020-09-09 05:00:00 11.7 0 Calma 2 Nordeste 0 -- -- 91
2020-09-09 04:00:00 12.1 0 Calma -- -- 0 -- -- 90
2020-09-09 03:00:00 12.7 0 Calma 0 Calma 0 -- -- 88
2020-09-09 02:00:00 13.4 0 Calma -- -- 0 -- -- 84
2020-09-09 01:00:00 14.4 0 Calma 0 Calma 0 -- -- 80
2020-09-09 00:00:00 15.9 0 Calma -- -- 0 -- -- 73
2020-09-08 23:00:00 17.8 0 Calma 6 Nordeste 0 -- -- 64
2020-09-08 22:00:00 20.3 2 Nordeste 10 Nordeste 0 -- -- 54
2020-09-08 21:00:00 24.7 0 Calma -- -- 0 -- -- 45
2020-09-08 20:00:00 30.4 0 Calma 6 Norte 0 -- -- 32
2020-09-08 19:00:00 31.3 0 Calma 10 Noroeste 0 -- -- 29
2020-09-08 18:00:00 31.2 0 Calma 11 Norte 0 -- -- 29
2020-09-08 17:00:00 30.8 2 Norte 14 Este 0 -- -- 30
2020-09-08 16:00:00 29.4 2 Sudeste 14 Este 0 -- -- 31
2020-09-08 15:00:00 27.2 2 Nordeste 13 Este 0 -- -- 34
2020-09-08 14:00:00 25.6 4 Nordeste 13 Este 0 -- -- 36
2020-09-08 13:00:00 23.5 4 Este 18 Nordeste 0 -- -- 40
2020-09-08 12:00:00 20 5 Sudeste 16 Este 0 -- -- 45
2020-09-08 11:00:00 18.1 4 Este 15 Este 0 -- -- 52
2020-09-08 10:00:00 13 0 Calma 13 Este 0 -- -- 80
2020-09-08 09:00:00 10.2 5 Nordeste 10 Nordeste 0 -- -- 90
2020-09-08 08:00:00 10.2 3 Nordeste 11 Nordeste 0 -- -- 92
2020-09-08 07:00:00 10.7 0 Calma 9 Nordeste 0 -- -- 94
2020-09-08 06:00:00 11.1 2 Nordeste 6 Nordeste 0 -- -- 94
2020-09-08 05:00:00 11.4 0 Calma 5 Norte 0 -- -- 94
2020-09-08 04:00:00 12.1 0 Calma 3 Nordeste 0 -- -- 92
2020-09-08 03:00:00 12.9 0 Calma -- -- 0 -- -- 90
2020-09-08 02:00:00 13.9 0 Calma -- -- 0 -- -- 87
2020-09-08 01:00:00 15.2 0 Calma -- -- 0 -- -- 84
2020-09-08 00:00:00 16.7 0 Calma 7 Oeste 0 -- -- 79
2020-09-07 23:00:00 18.2 0 Calma 6 Oeste 0 -- -- 73
2020-09-07 22:00:00 20.3 0 Calma 11 Norte 0 -- -- 62
2020-09-07 21:00:00 22.7 4 Nordeste 20 Nordeste 0 -- -- 51
2020-09-07 20:00:00 26.5 5 Nordeste 18 Nordeste 0 -- -- 41
2020-09-07 19:00:00 29 5 Nordeste 14 Nordeste 0 -- -- 36
2020-09-07 18:00:00 29.5 4 Nordeste 16 Este 0 -- -- 37
2020-09-07 17:00:00 29 5 Nordeste 19 Norte 0 -- -- 38
2020-09-07 16:00:00 27.3 5 Este 21 Este 0 -- -- 40
2020-09-07 15:00:00 26.1 3 Este 19 Este 0 -- -- 44
2020-09-07 14:00:00 24.8 5 Este 18 Este 0 -- -- 47
2020-09-07 13:00:00 22.7 4 Este 20 Este 0 -- -- 53
2020-09-07 12:00:00 19.5 5 Este 15 Este 0 -- -- 63
2020-09-07 11:00:00 15.7 0 Calma 7 Nordeste 0 -- -- 89
2020-09-07 10:00:00 10.3 0 Calma -- -- 0 -- -- 97
2020-09-07 09:00:00 8.5 0 Calma -- -- 0 -- -- 96
2020-09-07 08:00:00 8.5 0 Calma -- -- 0 -- -- 95
2020-09-07 07:00:00 8.9 0 Calma -- -- 0 -- -- 94
2020-09-07 06:00:00 9.4 0 Calma -- -- 0 -- -- 94
2020-09-07 05:00:00 9.9 0 Calma 0 Calma 0 -- -- 93
2020-09-07 04:00:00 10.6 0 Calma -- -- 0 -- -- 93
2020-09-07 03:00:00 11.2 0 Calma 0 Calma 0 -- -- 91
2020-09-07 02:00:00 12.1 0 Calma -- -- 0 -- -- 89
2020-09-07 01:00:00 13.1 0 Calma 0 Calma 0 -- -- 87
2020-09-07 00:00:00 14.4 0 Calma 0 Calma 0 -- -- 81
2020-09-06 23:00:00 15.9 0 Calma 0 Calma 0 -- -- 74
2020-09-06 22:00:00 18.2 0 Calma 12 Nordeste 0 -- -- 65
2020-09-06 21:00:00 20.5 3 Norte 13 Norte 0 -- -- 55
2020-09-06 20:00:00 24.8 6 Noroeste 18 Nordeste 0 -- -- 48
2020-09-06 19:00:00 26.6 5 Nordeste 22 Nordeste 0 -- -- 45
2020-09-06 18:00:00 27.7 9 Nordeste 20 Nordeste 0 -- -- 44
2020-09-06 17:00:00 28.8 4 Nordeste 20 Este 0 -- -- 41
2020-09-06 16:00:00 28.6 3 Nordeste 16 Sudeste 0 -- -- 43
2020-09-06 15:00:00 26.9 5 Nordeste 17 Nordeste 0 -- -- 46
2020-09-06 14:00:00 25.8 3 Este 14 Este 0 -- -- 49
2020-09-06 13:00:00 22.6 3 Este 14 Sudeste 0 -- -- 59
2020-09-06 12:00:00 19.8 2 Sudeste 12 Este 0 -- -- 70
2020-09-06 11:00:00 17.1 0 Calma 5 Sur 0 -- -- 86
2020-09-06 10:00:00 14 0 Calma 5 Sudeste 0 -- -- 98
2020-09-06 09:00:00 11.5 0 Calma -- -- 0 -- -- 96
2020-09-06 08:00:00 11.5 0 Calma 0 Calma 0 -- -- 95
2020-09-06 07:00:00 12 0 Calma 2 Norte 0 -- -- 94
2020-09-06 06:00:00 12.6 0 Calma -- -- 0 -- -- 94
2020-09-06 05:00:00 13.2 0 Calma -- -- 0 -- -- 94
2020-09-06 04:00:00 14.2 0 Calma 4 Este 0 -- -- 94
2020-09-06 03:00:00 14 0 Calma 2 Sudoeste 0 -- -- 91
2020-09-06 02:00:00 14.7 0 Calma -- -- 0 -- -- 90
2020-09-06 01:00:00 15.7 0 Calma -- -- 0 -- -- 87
2020-09-06 00:00:00 16.5 0 Calma 4 Oeste 0 -- -- 84
2020-09-05 23:00:00 17.6 0 Calma 9 Nordeste 0 -- -- 80
2020-09-05 22:00:00 18.7 3 Noroeste 17 Nordeste 0 -- -- 75
2020-09-05 21:00:00 20.9 4 Norte 17 Norte 0 -- -- 64
2020-09-05 20:00:00 25.1 6 Nordeste 21 Norte 0 -- -- 52
2020-09-05 19:00:00 27.1 7 Norte 21 Norte 0 -- -- 48
2020-09-05 18:00:00 28.7 7 Noroeste 22 Nordeste 0 -- -- 45
2020-09-05 17:00:00 28.5 10 Nordeste 21 Nordeste 0 -- -- 45
2020-09-05 16:00:00 30.2 3 Nordeste 14 Nordeste 0 -- -- 43
2020-09-05 15:00:00 29 3 Nordeste 16 Este 0 -- -- 44
2020-09-05 14:00:00 27.3 4 Este 18 Sudeste 0 -- -- 48
2020-09-05 13:00:00 25.5 6 Nordeste 13 Nordeste 0 -- -- 56
2020-09-05 12:00:00 21.9 0 Calma 9 Sudeste 0 -- -- 69
2020-09-05 11:00:00 19.1 0 Calma 6 Este 0 -- -- 87
2020-09-05 10:00:00 15.1 0 Calma -- -- 0 -- -- 98
2020-09-05 09:00:00 12.4 0 Calma 3 Norte 0 -- -- 95
2020-09-05 08:00:00 12.3 0 Calma -- -- 0 -- -- 94
2020-09-05 07:00:00 12.8 0 Calma -- -- 0 -- -- 94
2020-09-05 06:00:00 13.1 0 Calma 4 Noroeste 0 -- -- 94
2020-09-05 05:00:00 14.5 0 Calma 4 Nordeste 0 -- -- 95
2020-09-05 04:00:00 14.1 0 Calma -- -- 0 -- -- 91
2020-09-05 03:00:00 15.2 0 Calma -- -- 0 -- -- 91
2020-09-05 02:00:00 16 0 Calma -- -- 0 -- -- 87
2020-09-05 01:00:00 17.1 0 Calma 0 Calma 0 -- -- 83
2020-09-05 00:00:00 18.9 0 Calma 6 Noroeste 0 -- -- 68
2020-09-04 23:00:00 20.7 0 Calma 16 Norte 0 -- -- 58
2020-09-04 22:00:00 22.4 0 Calma 5 Noroeste 0 -- -- 58
2020-09-04 21:00:00 25.9 0 Calma 14 Noroeste 0 -- -- 49
2020-09-04 20:00:00 29.3 9 Oeste 16 Oeste 0 -- -- 38
2020-09-04 19:00:00 32.3 3 Oeste 20 Oeste 0 -- -- 29
2020-09-04 18:00:00 32.7 7 Oeste 21 Oeste 0 -- -- 28
2020-09-04 17:00:00 33 6 Oeste 24 Oeste 0 -- -- 28
2020-09-04 16:00:00 33.7 8 Oeste 23 Oeste 0 -- -- 31
2020-09-04 15:00:00 32.3 0 Calma 8 Oeste 0 -- -- 37
2020-09-04 14:00:00 30.8 0 Calma 6 Este 0 -- -- 43
2020-09-04 13:00:00 27.7 0 Calma 6 Este 0 -- -- 49
2020-09-04 12:00:00 23.5 0 Calma 0 Calma 0 -- -- 63
2020-09-04 11:00:00 19.5 0 Calma -- -- 0 -- -- 80
2020-09-04 10:00:00 15 0 Calma 0 Calma 0 -- -- 95
2020-09-04 09:00:00 13.3 0 Calma -- -- 0 -- -- 94
2020-09-04 08:00:00 13.3 0 Calma 5 Nordeste 0 -- -- 93
2020-09-04 07:00:00 13.7 0 Calma 6 Nordeste 0 -- -- 91
2020-09-04 06:00:00 14.1 0 Calma 3 Nordeste 0 -- -- 90
2020-09-04 05:00:00 14.7 0 Calma 4 Nordeste 0 -- -- 87
2020-09-04 04:00:00 15.1 0 Calma 4 Nordeste 0 -- -- 86
2020-09-04 03:00:00 15.8 0 Calma -- -- 0 -- -- 85
2020-09-04 02:00:00 16.9 0 Calma -- -- 0 -- -- 82
2020-09-04 01:00:00 18 0 Calma -- -- 0 -- -- 79
2020-09-04 00:00:00 19.9 0 Calma -- -- 0 -- -- 72
2020-09-03 23:00:00 22.3 0 Calma 9 Nordeste 0 -- -- 60
2020-09-03 22:00:00 24.7 0 Calma 14 Noroeste 0 -- -- 48
2020-09-03 21:00:00 28.1 0 Calma 10 Noroeste 0 -- -- 39
2020-09-03 20:00:00 31.6 2 Noroeste 14 Noroeste 0 -- -- 31
2020-09-03 19:00:00 34.1 0 Calma 11 Nordeste 0 -- -- 30
2020-09-03 18:00:00 34.8 0 Calma 12 Sudeste 0 -- -- 28
2020-09-03 17:00:00 34.1 0 Calma 16 Oeste 0 -- -- 28
2020-09-03 16:00:00 33.6 0 Calma 9 Este 0 -- -- 28
2020-09-03 15:00:00 31.8 0 Calma 5 Noroeste 0 -- -- 33
2020-09-03 14:00:00 29.8 0 Calma 10 Sudeste 0 -- -- 37
2020-09-03 13:00:00 27.1 0 Calma 9 Nordeste 0 -- -- 43
2020-09-03 12:00:00 23.2 0 Calma 8 Este 0 -- -- 57
2020-09-03 11:00:00 18.8 0 Calma -- -- 0 -- -- 90
2020-09-03 10:00:00 13.8 0 Calma -- -- 0 -- -- 97
2020-09-03 09:00:00 11.9 0 Calma -- -- 0 -- -- 96
2020-09-03 08:00:00 12 0 Calma -- -- 0 -- -- 95
2020-09-03 07:00:00 12.3 0 Calma -- -- 0 -- -- 94
2020-09-03 06:00:00 12.9 0 Calma -- -- 0 -- -- 93
2020-09-03 05:00:00 13.4 0 Calma -- -- 0 -- -- 91
2020-09-03 04:00:00 14.2 0 Calma 5 Norte 0 -- -- 90
2020-09-03 03:00:00 15 0 Calma 7 Nordeste 0 -- -- 89
2020-09-03 02:00:00 15.8 2 Norte 7 Nordeste 0 -- -- 89
2020-09-03 01:00:00 17.2 0 Calma -- -- 0 -- -- 86
2020-09-03 00:00:00 18.7 0 Calma 5 Oeste 0 -- -- 82
2020-09-02 23:00:00 20.2 0 Calma 9 Nordeste 0 -- -- 77
2020-09-02 22:00:00 21.7 4 Nordeste 18 Nordeste 0 -- -- 71
2020-09-02 21:00:00 24.7 6 Norte 23 Nordeste 0 -- -- 54
2020-09-02 20:00:00 29 3 Norte 19 Noroeste 0 -- -- 41
2020-09-02 19:00:00 31.7 0 Calma 10 Norte 0 -- -- 31
2020-09-02 18:00:00 31.5 0 Calma 6 Sur 0 -- -- 31
2020-09-02 17:00:00 30.3 3 Nordeste 12 Este 0 -- -- 33
2020-09-02 16:00:00 29 0 Calma 11 Nordeste 0 -- -- 38
2020-09-02 15:00:00 26.5 0 Calma 14 Este 0 -- -- 43
2020-09-02 14:00:00 25.4 2 Sur 10 Nordeste 0 -- -- 47
2020-09-02 13:00:00 22.1 0 Calma 12 Sudeste 0 -- -- 60
2020-09-02 12:00:00 17.8 0 Calma 9 Nordeste 0 -- -- 74
2020-09-02 11:00:00 14.9 0 Calma 8 Oeste 0 -- -- 91
2020-09-02 10:00:00 12 0 Calma -- -- 0 -- -- 98
2020-09-02 09:00:00 8.9 0 Calma -- -- 0 -- -- 95
2020-09-02 08:00:00 9 0 Calma -- -- 0 -- -- 95
2020-09-02 07:00:00 9.6 0 Calma -- -- 0 -- -- 94
2020-09-02 06:00:00 10.2 0 Calma -- -- 0 -- -- 94
2020-09-02 05:00:00 11 0 Calma -- -- 0 -- -- 93
2020-09-02 04:00:00 11.9 0 Calma -- -- 0 -- -- 91
2020-09-02 03:00:00 12.9 0 Calma 3 Sudeste 0 -- -- 91
2020-09-02 02:00:00 12.9 0 Calma -- -- 0 -- -- 88
2020-09-02 01:00:00 13.7 0 Calma -- -- 0 -- -- 85
2020-09-02 00:00:00 14.7 0 Calma 3 Norte 0 -- -- 79
2020-09-01 23:00:00 16.8 0 Calma 22 Este 0 -- -- 68
2020-09-01 22:00:00 18.8 2 Oeste 24 Nordeste 0 -- -- 62
2020-09-01 21:00:00 20.9 8 Nordeste 25 Nordeste 0 -- -- 54
2020-09-01 20:00:00 24.5 7 Norte 23 Norte 0 -- -- 52
2020-09-01 19:00:00 26 6 Norte 21 Noroeste 0 -- -- 45
2020-09-01 18:00:00 27.5 6 Norte 22 Oeste 0 -- -- 41
2020-09-01 17:00:00 27.5 6 Noroeste 21 Oeste 0 -- -- 41
2020-09-01 16:00:00 26.7 5 Norte 23 Oeste 0 -- -- 42
2020-09-01 15:00:00 25.7 5 Noroeste 18 Oeste 0 -- -- 41
2020-09-01 14:00:00 24.6 0 Calma 11 Oeste 0 -- -- 41
2020-09-01 13:00:00 22.8 0 Calma 8 Sudeste 0 -- -- 50
2020-09-01 12:00:00 19.8 2 Sudeste 8 Sudeste 0 -- -- 59
2020-09-01 11:00:00 17.5 0 Calma 5 Sur 0 -- -- 69
2020-09-01 10:00:00 14.2 0 Calma 6 Nordeste 0 -- -- 87
2020-09-01 09:00:00 12.3 0 Calma -- -- 0 -- -- 92
2020-09-01 08:00:00 12.4 0 Calma -- -- 0 -- -- 91
2020-09-01 07:00:00 12.9 0 Calma -- -- 0 -- -- 89
2020-09-01 06:00:00 13.2 0 Calma -- -- 0 -- -- 87
2020-09-01 05:00:00 13.5 0 Calma -- -- 0 -- -- 87
2020-09-01 04:00:00 13.8 0 Calma -- -- 0 -- -- 87
2020-09-01 03:00:00 14.2 0 Calma -- -- 0 -- -- 84
2020-09-01 02:00:00 14.9 0 Calma 11 Noroeste 0 -- -- 79
2020-09-01 01:00:00 15 0 Calma -- -- 0 -- -- 80
2020-09-01 00:00:00 16 0 Calma -- -- 0 -- -- 72
2020-08-31 23:00:00 17.5 0 Calma 5 Nordeste 0 -- -- 63
2020-08-31 22:00:00 18.9 0 Calma 6 Noroeste 0 -- -- 59
2020-08-31 21:00:00 21.2 0 Calma 12 Oeste 0 -- -- 45
2020-08-31 20:00:00 23.6 3 Oeste 13 Oeste 0 -- -- 40
2020-08-31 19:00:00 25.3 2 Oeste 17 Sudoeste 0 -- -- 36
2020-08-31 18:00:00 26 7 Oeste 17 Oeste 0 -- -- 31
2020-08-31 17:00:00 26.1 4 Oeste 15 Oeste 0 -- -- 34
2020-08-31 16:00:00 25.7 5 Oeste 20 Oeste 0 -- -- 31
2020-08-31 15:00:00 25.5 2 Oeste 13 Oeste 0 -- -- 33
2020-08-31 14:00:00 24.1 0 Calma 10 Oeste 0 -- -- 39
2020-08-31 13:00:00 22.1 0 Calma 8 Nordeste 0 -- -- 47
2020-08-31 12:00:00 18.6 0 Calma 9 Este 0 -- -- 55
2020-08-31 11:00:00 15.1 2 Este 9 Este 0 -- -- 74
2020-08-31 10:00:00 8.9 0 Calma 4 Norte 0 -- -- 98
2020-08-31 09:00:00 6.7 0 Calma 4 Este 0 -- -- 96
2020-08-31 08:00:00 6.4 0 Calma 6 Norte 0 -- -- 95
2020-08-31 07:00:00 6.8 0 Calma 6 Norte 0 -- -- 94
2020-08-31 06:00:00 7.3 0 Calma 5 Norte 0 -- -- 93
2020-08-31 05:00:00 8 0 Calma 7 Nordeste 0 -- -- 92
2020-08-31 04:00:00 8.7 0 Calma -- -- 0 -- -- 91
2020-08-31 03:00:00 9.3 0 Calma 3 Nordeste 0 -- -- 89
2020-08-31 02:00:00 10.2 0 Calma 4 Nordeste 0 -- -- 87
2020-08-31 01:00:00 11.2 0 Calma 3 Oeste 0 -- -- 83
2020-08-31 00:00:00 12.4 0 Calma 6 Oeste 0 -- -- 76
2020-08-30 23:00:00 14.4 0 Calma 8 Este 0 -- -- 66
2020-08-30 22:00:00 16 0 Calma 14 Nordeste 0 -- -- 58
2020-08-30 21:00:00 18.7 6 Norte 18 Nordeste 0 -- -- 48
2020-08-30 20:00:00 21.1 7 Nordeste 20 Nordeste 0 -- -- 42
2020-08-30 19:00:00 22.3 4 Norte 24 Nordeste 0 -- -- 39
2020-08-30 18:00:00 24.6 4 Noroeste 19 Nordeste 0 -- -- 36
2020-08-30 17:00:00 23.7 5 Nordeste 24 Este 0 -- -- 35
2020-08-30 16:00:00 22.6 6 Este 23 Este 0 -- -- 37
2020-08-30 15:00:00 21.7 5 Nordeste 20 Nordeste 0 -- -- 38
2020-08-30 14:00:00 18.8 3 Nordeste 21 Nordeste 0 -- -- 45
2020-08-30 13:00:00 18.5 6 Nordeste 19 Nordeste 0 -- -- 47
2020-08-30 12:00:00 17.1 7 Nordeste 23 Norte 0 -- -- 54
2020-08-30 11:00:00 14.2 0 Calma 5 Oeste 0 -- -- 81
2020-08-30 10:00:00 10.5 0 Calma 8 Oeste 0 -- -- 98
2020-08-30 09:00:00 8.6 0 Calma 5 Nordeste 0 -- -- 98
2020-08-30 08:00:00 8.2 0 Calma 0 Calma 0 -- -- 98
2020-08-30 07:00:00 7.6 0 Calma 4 Oeste 0 -- -- 97
2020-08-30 06:00:00 7.8 0 Calma -- -- 0 -- -- 96
2020-08-30 05:00:00 8 0 Calma -- -- 0 -- -- 95
2020-08-30 04:00:00 8.8 0 Calma 5 Norte 0 -- -- 94
2020-08-30 03:00:00 9.5 0 Calma 2 Este 0 -- -- 94
2020-08-30 02:00:00 9.7 0 Calma 0 Calma 0 -- -- 91
2020-08-30 01:00:00 10.2 0 Calma 5 Noroeste 0 -- -- 88
2020-08-30 00:00:00 11.7 0 Calma 3 Oeste 0 -- -- 82
2020-08-29 23:00:00 13.3 0 Calma 13 Oeste 0 -- -- 74
2020-08-29 22:00:00 14.8 4 Noroeste 17 Norte 0 -- -- 64
2020-08-29 21:00:00 16.6 6 Norte 21 Noroeste 0 -- -- 57
2020-08-29 20:00:00 19.6 6 Noroeste 27 Nordeste 0 -- -- 51
2020-08-29 19:00:00 20.2 8 Norte 28 Nordeste 0 -- -- 50
2020-08-29 18:00:00 21 6 Noroeste 27 Noroeste 0 -- -- 55
2020-08-29 17:00:00 18.4 7 Norte 36 Nordeste 0 -- -- 58
2020-08-29 16:00:00 21.4 7 Norte 36 Nordeste 0.1 -- -- 50
2020-08-29 15:00:00 20.9 8 Norte 25 Nordeste 0 -- -- 51
2020-08-29 14:00:00 21.1 6 Noroeste 24 Nordeste 0 -- -- 50
2020-08-29 13:00:00 18.3 13 Nordeste 31 Nordeste 0 -- -- 56
2020-08-29 12:00:00 16.3 8 Noroeste 22 Noroeste 0 -- -- 76
2020-08-29 11:00:00 15.3 5 Norte 20 Noroeste 0.1 -- -- 87
2020-08-29 10:00:00 13.7 6 Noroeste 15 Noroeste 0 -- -- 96
2020-08-29 09:00:00 12.5 3 Noroeste 10 Norte 0.1 -- -- 98
2020-08-29 08:00:00 11.1 0 Calma -- -- 0 -- -- 96
2020-08-29 07:00:00 11.3 0 Calma 5 Norte 0 -- -- 96
2020-08-29 06:00:00 12.1 0 Calma 9 Noroeste 0.3 -- -- 96
2020-08-29 05:00:00 12 0 Calma 6 Noroeste 0 -- -- 94
2020-08-29 04:00:00 12 0 Calma 6 Noroeste 0 -- -- 93
2020-08-29 03:00:00 12.1 0 Calma -- -- 0 -- -- 91
2020-08-29 02:00:00 12.5 0 Calma 5 Oeste 0 -- -- 90
2020-08-29 01:00:00 12.5 0 Calma -- -- 0 -- -- 87
2020-08-29 00:00:00 12.8 0 Calma 12 Noroeste 0 -- -- 84
2020-08-28 23:00:00 14 4 Noroeste 10 Noroeste 0 -- -- 78
2020-08-28 22:00:00 15.2 3 Noroeste 18 Norte 0 -- -- 71
2020-08-28 21:00:00 17.1 5 Norte 21 Noroeste 0 -- -- 63
2020-08-28 20:00:00 19.7 6 Noroeste 24 Noroeste 0 -- -- 51
2020-08-28 19:00:00 21 7 Noroeste 23 Noroeste 0 -- -- 50
2020-08-28 18:00:00 20.5 6 Noroeste 25 Oeste 0 -- -- 52
2020-08-28 17:00:00 21 7 Noroeste 26 Oeste 0 -- -- 47
2020-08-28 16:00:00 20.6 9 Noroeste 21 Oeste 0 -- -- 51
2020-08-28 15:00:00 21.6 6 Norte 22 Oeste 0 -- -- 50
2020-08-28 14:00:00 20.8 8 Norte 20 Nordeste 0 -- -- 49
2020-08-28 13:00:00 21.2 3 Norte 16 Nordeste 0 -- -- 52
2020-08-28 12:00:00 18.3 4 Norte 21 Oeste 0 -- -- 64
2020-08-28 11:00:00 17.5 7 Oeste 20 Norte 0 -- -- 70
2020-08-28 10:00:00 14.9 5 Noroeste 17 Noroeste 0 -- -- 87
2020-08-28 09:00:00 13 0 Calma 6 Norte 0 -- -- 93
2020-08-28 08:00:00 13.1 0 Calma 9 Nordeste 0 -- -- 90
2020-08-28 07:00:00 14.2 7 Noroeste 17 Noroeste 0 -- -- 89
2020-08-28 06:00:00 15.2 5 Noroeste 15 Noroeste 0 -- -- 90
2020-08-28 05:00:00 16.1 2 Oeste 9 Oeste 0 -- -- 92
2020-08-28 04:00:00 17 0 Calma 5 Nordeste 0 -- -- 92
2020-08-28 03:00:00 17.6 0 Calma -- -- 0 -- -- 91
2020-08-28 02:00:00 18.2 0 Calma 0 Calma 0 -- -- 89
2020-08-28 01:00:00 19.4 0 Calma 5 Sudoeste 0 -- -- 86
2020-08-28 00:00:00 20.2 0 Calma 7 Oeste 0 -- -- 83